createdAt,value
2019-02-26T00:00:49.687Z,27.03
2019-02-26T00:03:19.865Z,24.53
2019-02-26T00:05:51.791Z,28.17
2019-02-26T00:08:21.829Z,23.43
2019-02-26T00:10:50.295Z,21.50
2019-02-26T00:13:19.193Z,25.00
2019-02-26T00:15:48.433Z,24.33
2019-02-26T00:18:19.041Z,18.87
2019-02-26T00:20:48.012Z,25.10
2019-02-26T00:23:16.749Z,21.60
2019-02-26T00:25:45.382Z,22.13
2019-02-26T00:28:15.870Z,23.30
2019-02-26T00:30:44.395Z,22.93
2019-02-26T00:33:13.400Z,21.63
2019-02-26T00:35:43.866Z,20.80
2019-02-26T00:38:13.428Z,24.60
2019-02-26T00:40:43.263Z,19.33
2019-02-26T00:43:12.020Z,18.93
2019-02-26T00:45:40.586Z,22.40
2019-02-26T00:48:09.597Z,25.80
2019-02-26T00:50:39.796Z,20.53
2019-02-26T00:53:08.612Z,21.70
2019-02-26T00:55:39.163Z,28.90
2019-02-26T00:58:08.426Z,20.00
2019-02-26T01:00:37.829Z,19.77
2019-02-26T01:03:11.509Z,22.83
2019-02-26T01:05:41.014Z,21.47
2019-02-26T01:08:12.833Z,20.70
2019-02-26T01:10:41.583Z,22.80
2019-02-26T01:13:11.210Z,20.97
2019-02-26T01:15:39.887Z,22.57
2019-02-26T01:18:10.004Z,20.10
2019-02-26T01:20:38.909Z,20.27
2019-02-26T01:23:07.782Z,26.33
2019-02-26T01:25:38.242Z,24.83
2019-02-26T01:28:06.802Z,21.07
2019-02-26T01:30:36.282Z,18.53
2019-02-26T01:33:07.006Z,23.40
2019-02-26T01:35:36.099Z,22.60
2019-02-26T01:38:06.248Z,19.23
2019-02-26T01:40:34.806Z,21.37
2019-02-26T01:43:05.491Z,26.47
2019-02-26T01:45:33.901Z,23.83
2019-02-26T01:48:04.018Z,29.53
2019-02-26T01:50:33.429Z,19.23
2019-02-26T01:53:03.496Z,27.70
2019-02-26T01:55:32.043Z,21.37
2019-02-26T01:58:00.863Z,26.23
2019-02-26T02:00:29.495Z,18.60
2019-02-26T02:02:58.275Z,25.00
2019-02-26T02:05:29.449Z,28.27
2019-02-26T02:07:57.441Z,19.53
2019-02-26T02:10:26.343Z,31.00
2019-02-26T02:12:57.374Z,25.97
2019-02-26T02:15:25.344Z,26.77
2019-02-26T02:17:55.420Z,25.53
2019-02-26T02:20:24.349Z,21.50
2019-02-26T02:22:52.907Z,20.93
2019-02-26T02:25:21.721Z,21.07
2019-02-26T02:27:54.193Z,21.47
2019-02-26T02:30:26.832Z,20.27
2019-02-26T02:32:55.046Z,19.60
2019-02-26T02:35:21.677Z,20.63
2019-02-26T02:37:53.337Z,23.40
2019-02-26T02:40:20.735Z,27.70
2019-02-26T02:42:49.898Z,22.47
2019-02-26T02:45:21.078Z,25.37
2019-02-26T02:47:54.808Z,24.17
2019-02-26T02:50:19.130Z,20.80
2019-02-26T02:52:47.924Z,22.17
2019-02-26T02:55:19.316Z,22.30
2019-02-26T02:57:49.365Z,24.50
2019-02-26T03:00:17.531Z,23.17
2019-02-26T03:02:49.373Z,23.70
2019-02-26T03:05:16.614Z,22.40
2019-02-26T03:07:48.846Z,23.23
2019-02-26T03:10:15.935Z,28.07
2019-02-26T03:12:48.671Z,21.33
2019-02-26T03:15:16.127Z,24.27
2019-02-26T03:17:45.027Z,20.13
2019-02-26T03:20:14.727Z,20.33
2019-02-26T03:22:46.728Z,28.20
2019-02-26T03:25:17.789Z,25.77
2019-02-26T03:27:46.939Z,24.33
2019-02-26T03:30:26.166Z,20.30
2019-02-26T03:32:55.930Z,25.77
2019-02-26T03:35:22.288Z,27.90
2019-02-26T03:37:52.392Z,22.30
2019-02-26T03:40:20.907Z,21.73
2019-02-26T03:42:50.715Z,24.03
2019-02-26T03:45:23.670Z,25.07
2019-02-26T03:47:49.733Z,34.20
2019-02-26T03:50:18.331Z,21.17
2019-02-26T03:52:47.112Z,22.10
2019-02-26T03:55:18.717Z,27.20
2019-02-26T03:57:47.565Z,23.10
2019-02-26T04:00:19.957Z,29.23
2019-02-26T04:02:51.275Z,26.40
2019-02-26T04:05:19.563Z,22.17
2019-02-26T04:07:51.621Z,25.07
2019-02-26T04:10:18.543Z,24.40
2019-02-26T04:12:48.686Z,24.13
2019-02-26T04:15:24.324Z,19.23
2019-02-26T04:17:51.362Z,19.17
2019-02-26T04:20:19.917Z,23.20
2019-02-26T04:22:49.933Z,24.30
2019-02-26T04:25:24.882Z,21.20
2019-02-26T04:28:08.156Z,20.70
2019-02-26T04:30:56.321Z,25.20
2019-02-26T04:33:35.965Z,26.03
2019-02-26T04:36:20.325Z,23.13
2019-02-26T04:39:24.068Z,19.27
2019-02-26T04:42:17.273Z,21.57
2019-02-26T04:44:58.953Z,20.50
2019-02-26T04:47:33.980Z,16.93
2019-02-26T04:50:06.279Z,23.77
2019-02-26T04:52:35.762Z,20.37
2019-02-26T04:55:05.741Z,24.53
2019-02-26T04:57:34.668Z,23.73
2019-02-26T05:00:05.276Z,22.93
2019-02-26T05:02:34.714Z,22.47
2019-02-26T05:05:03.566Z,21.27
2019-02-26T05:07:32.922Z,25.33
2019-02-26T05:10:02.646Z,24.47
2019-02-26T05:12:33.994Z,22.73
2019-02-26T05:15:02.407Z,22.60
2019-02-26T05:17:33.249Z,23.73
2019-02-26T05:20:04.265Z,23.47
2019-02-26T05:22:33.365Z,21.57
2019-02-26T05:25:04.452Z,22.87
2019-02-26T05:27:32.462Z,26.80
2019-02-26T05:30:01.487Z,24.10
2019-02-26T05:32:32.692Z,27.50
2019-02-26T05:35:00.484Z,23.43
2019-02-26T05:37:29.944Z,25.90
2019-02-26T05:39:59.353Z,18.40
2019-02-26T05:42:27.927Z,22.90
2019-02-26T05:44:59.713Z,20.37
2019-02-26T05:47:27.009Z,28.90
2019-02-26T05:49:55.885Z,18.67
2019-02-26T05:52:27.238Z,24.60
2019-02-26T05:54:54.890Z,22.07
2019-02-26T05:57:31.202Z,21.73
2019-02-26T05:59:53.662Z,22.97
2019-02-26T06:02:24.680Z,24.30
2019-02-26T06:04:52.593Z,21.03
2019-02-26T06:07:24.129Z,134.10
2019-02-26T06:09:54.224Z,248.83
2019-02-26T06:12:22.603Z,130.90
2019-02-26T06:14:51.619Z,38.80
2019-02-26T06:17:21.525Z,27.17
2019-02-26T06:19:51.074Z,24.80
2019-02-26T06:22:23.262Z,24.13
2019-02-26T06:24:50.131Z,22.60
2019-02-26T06:27:21.837Z,22.50
2019-02-26T06:29:52.876Z,19.27
2019-02-26T06:32:20.332Z,20.97
2019-02-26T06:34:49.216Z,21.83
2019-02-26T06:37:23.445Z,21.80
2019-02-26T06:39:54.855Z,24.63
2019-02-26T06:42:23.062Z,24.27
2019-02-26T06:44:51.621Z,21.87
2019-02-26T06:47:21.144Z,21.63
2019-02-26T06:49:52.569Z,21.63
2019-02-26T06:52:21.098Z,22.00
2019-02-26T06:54:54.787Z,20.83
2019-02-26T06:57:20.092Z,22.00
2019-02-26T06:59:50.831Z,23.87
2019-02-26T07:02:19.261Z,22.20
2019-02-26T07:04:47.834Z,28.20
2019-02-26T07:07:17.089Z,15.50
2019-02-26T07:09:48.550Z,21.70
2019-02-26T07:12:19.431Z,23.43
2019-02-26T07:14:48.428Z,18.83
2019-02-26T07:17:19.523Z,19.30
2019-02-26T07:19:48.147Z,19.30
2019-02-26T07:22:18.362Z,13.47
2019-02-26T07:24:49.490Z,20.60
2019-02-26T07:27:17.316Z,24.70
2019-02-26T07:29:49.728Z,20.23
2019-02-26T07:32:17.925Z,22.17
2019-02-26T07:34:52.120Z,22.30
2019-02-26T07:37:20.152Z,24.27
2019-02-26T07:39:49.610Z,24.40
2019-02-26T07:42:19.040Z,21.73
2019-02-26T07:44:47.860Z,19.57
2019-02-26T07:47:19.348Z,22.90
2019-02-26T07:49:48.081Z,20.80
2019-02-26T07:52:16.629Z,21.10
2019-02-26T07:54:47.091Z,29.07
2019-02-26T07:57:16.192Z,24.23
2019-02-26T07:59:47.579Z,18.83
2019-02-26T08:02:16.870Z,22.13
2019-02-26T08:04:45.740Z,25.20
2019-02-26T08:07:14.297Z,21.50
2019-02-26T08:09:43.116Z,20.07
2019-02-26T08:12:13.726Z,22.27
2019-02-26T08:14:42.860Z,22.53
2019-02-26T08:17:12.329Z,23.43
2019-02-26T08:19:43.696Z,18.50
2019-02-26T08:22:11.326Z,16.87
2019-02-26T08:24:40.148Z,25.30
2019-02-26T08:27:11.047Z,28.63
2019-02-26T08:29:38.922Z,12.27
2019-02-26T08:32:08.035Z,20.53
2019-02-26T08:34:39.129Z,23.93
2019-02-26T08:37:07.231Z,22.37
2019-02-26T08:39:38.087Z,27.90
2019-02-26T08:42:08.824Z,22.50
2019-02-26T08:44:37.637Z,31.77
2019-02-26T08:47:09.234Z,28.70
2019-02-26T08:49:38.303Z,30.50
2019-02-26T08:52:07.355Z,31.47
2019-02-26T08:54:36.253Z,29.63
2019-02-26T08:57:05.984Z,27.83
2019-02-26T08:59:34.855Z,34.43
2019-02-26T09:02:03.478Z,32.80
2019-02-26T09:04:32.225Z,28.03
2019-02-26T09:07:02.123Z,32.80
2019-02-26T09:09:32.712Z,31.27
2019-02-26T09:12:03.046Z,35.30
2019-02-26T09:14:34.388Z,35.40
2019-02-26T09:17:04.340Z,34.90
2019-02-26T09:19:33.637Z,30.63
2019-02-26T09:22:02.941Z,33.80
2019-02-26T09:24:31.754Z,33.90
2019-02-26T09:27:02.319Z,29.03
2019-02-26T09:29:31.447Z,35.33
2019-02-26T09:32:00.135Z,36.73
2019-02-26T09:34:31.599Z,30.67
2019-02-26T09:37:01.282Z,35.83
2019-02-26T09:39:31.895Z,34.50
2019-02-26T09:42:02.235Z,34.60
2019-02-26T09:44:31.454Z,41.60
2019-02-26T09:47:02.531Z,47.67
2019-02-26T09:49:33.321Z,23.43
2019-02-26T09:52:03.821Z,39.80
2019-02-26T09:54:32.313Z,35.67
2019-02-26T09:57:00.888Z,29.73
2019-02-26T09:59:31.432Z,20.43
2019-02-26T10:02:01.352Z,33.03
2019-02-26T10:04:30.306Z,33.77
2019-02-26T10:06:58.939Z,36.80
2019-02-26T10:09:27.656Z,31.47
2019-02-26T10:11:56.221Z,43.43
2019-02-26T10:14:26.976Z,42.07
2019-02-26T10:16:57.015Z,39.17
2019-02-26T10:19:25.790Z,34.03
2019-02-26T10:21:54.352Z,40.60
2019-02-26T10:24:27.144Z,30.63
2019-02-26T10:26:53.431Z,32.30
2019-02-26T10:29:22.147Z,37.10
2019-02-26T10:31:50.777Z,41.17
2019-02-26T10:34:20.894Z,36.50
2019-02-26T10:36:51.868Z,40.40
2019-02-26T10:39:21.409Z,38.40
2019-02-26T10:41:50.791Z,41.63
2019-02-26T10:44:19.587Z,38.30
2019-02-26T10:46:48.500Z,41.93
2019-02-26T10:49:17.353Z,43.93
2019-02-26T10:51:45.976Z,37.90
2019-02-26T10:54:17.885Z,37.73
2019-02-26T10:56:45.011Z,36.60
2019-02-26T10:59:15.887Z,42.00
2019-02-26T11:01:44.364Z,39.20
2019-02-26T11:04:15.011Z,41.17
2019-02-26T11:06:45.205Z,36.03
2019-02-26T11:09:18.030Z,41.23
2019-02-26T11:11:44.233Z,41.93
2019-02-26T11:14:15.996Z,43.77
2019-02-26T11:16:43.235Z,36.07
2019-02-26T11:19:12.500Z,40.07
2019-02-26T11:21:41.026Z,45.63
2019-02-26T11:24:11.238Z,40.90
2019-02-26T11:26:40.916Z,37.47
2019-02-26T11:29:10.349Z,47.37
2019-02-26T11:31:41.695Z,36.40
2019-02-26T11:34:10.945Z,14.70
2019-02-26T11:36:40.993Z,37.03
2019-02-26T11:39:11.996Z,36.27
2019-02-26T11:41:40.865Z,36.43
2019-02-26T11:44:12.514Z,32.37
2019-02-26T11:46:39.875Z,39.13
2019-02-26T11:49:09.352Z,32.40
2019-02-26T11:51:41.871Z,33.53
2019-02-26T11:54:10.700Z,33.10
2019-02-26T11:56:42.558Z,37.77
2019-02-26T11:59:12.555Z,35.03
2019-02-26T12:01:42.134Z,36.73
2019-02-26T12:04:11.314Z,34.33
2019-02-26T12:06:41.237Z,29.87
2019-02-26T12:09:11.441Z,25.73
2019-02-26T12:11:40.656Z,26.20
2019-02-26T12:14:10.962Z,24.90
2019-02-26T12:16:39.618Z,28.10
2019-02-26T12:19:08.742Z,29.20
2019-02-26T12:21:38.478Z,24.80
2019-02-26T12:24:09.222Z,22.80
2019-02-26T12:26:37.487Z,24.83
2019-02-26T12:29:06.061Z,22.60
2019-02-26T12:31:38.384Z,26.40
2019-02-26T12:34:05.066Z,20.00
2019-02-26T12:36:35.519Z,23.17
2019-02-26T12:39:06.894Z,24.87
2019-02-26T12:41:36.575Z,31.17
2019-02-26T12:44:10.854Z,22.80
2019-02-26T12:46:38.086Z,32.80
2019-02-26T12:49:09.372Z,26.97
2019-02-26T12:51:37.490Z,24.53
2019-02-26T12:54:07.040Z,22.57
2019-02-26T12:56:37.366Z,18.63
2019-02-26T12:59:07.067Z,25.20
2019-02-26T13:01:39.518Z,21.67
2019-02-26T13:04:09.453Z,23.00
2019-02-26T13:06:38.368Z,19.70
2019-02-26T13:09:08.078Z,20.30
2019-02-26T13:11:36.656Z,26.53
2019-02-26T13:14:05.453Z,20.83
2019-02-26T13:16:34.017Z,25.37
2019-02-26T13:19:04.575Z,29.93
2019-02-26T13:21:33.026Z,22.67
2019-02-26T13:24:11.496Z,24.30
2019-02-26T13:26:35.957Z,22.40
2019-02-26T13:29:02.696Z,23.17
2019-02-26T13:31:35.738Z,25.40
2019-02-26T13:34:03.244Z,24.00
2019-02-26T13:36:35.708Z,22.37
2019-02-26T13:39:02.225Z,19.57
2019-02-26T13:41:38.362Z,21.67
2019-02-26T13:44:01.360Z,24.73
2019-02-26T13:46:29.934Z,20.00
2019-02-26T13:48:58.633Z,24.53
2019-02-26T13:51:27.195Z,23.10
2019-02-26T13:53:55.902Z,18.87
2019-02-26T13:56:24.462Z,25.17
2019-02-26T13:58:53.636Z,20.47
2019-02-26T14:01:22.268Z,25.10
2019-02-26T14:03:51.050Z,26.47
2019-02-26T14:06:19.610Z,21.53
2019-02-26T14:08:49.437Z,24.13
2019-02-26T14:11:18.073Z,25.10
2019-02-26T14:13:47.018Z,19.67
2019-02-26T14:16:15.634Z,21.60
2019-02-26T14:18:44.386Z,24.80
2019-02-26T14:21:13.418Z,22.60
2019-02-26T14:23:41.976Z,22.00
2019-02-26T14:26:10.860Z,21.47
2019-02-26T14:28:39.425Z,22.77
2019-02-26T14:31:08.814Z,23.00
2019-02-26T14:33:37.476Z,25.43
2019-02-26T14:36:06.234Z,18.50
2019-02-26T14:38:34.790Z,24.93
2019-02-26T14:41:03.605Z,18.30
2019-02-26T14:43:32.165Z,22.40
2019-02-26T14:46:01.062Z,22.70
2019-02-26T14:48:29.619Z,20.00
2019-02-26T14:50:58.361Z,20.90
2019-02-26T14:53:27.636Z,22.30
2019-02-26T14:55:56.520Z,25.23
2019-02-26T14:58:25.131Z,25.67
2019-02-26T15:00:57.923Z,25.60
2019-02-26T15:03:25.552Z,36.00
2019-02-26T15:05:54.342Z,22.00
2019-02-26T15:08:22.902Z,24.93
2019-02-26T15:10:51.462Z,25.90
2019-02-26T15:13:20.223Z,30.97
2019-02-26T15:15:49.294Z,28.20
2019-02-26T15:18:17.928Z,34.40
2019-02-26T15:20:46.849Z,26.73
2019-02-26T15:23:15.790Z,24.57
2019-02-26T15:25:44.647Z,20.43
2019-02-26T15:28:13.206Z,28.50
2019-02-26T15:30:41.919Z,24.43
2019-02-26T15:33:11.462Z,23.80
2019-02-26T15:35:42.634Z,24.43
2019-02-26T15:38:11.208Z,25.53
2019-02-26T15:40:40.162Z,25.03
2019-02-26T15:43:08.855Z,23.47
2019-02-26T15:45:37.624Z,23.93
2019-02-26T15:48:06.194Z,22.53
2019-02-26T15:50:40.265Z,30.83
2019-02-26T15:53:08.688Z,21.50
2019-02-26T15:55:37.467Z,22.63
2019-02-26T15:58:06.885Z,24.13
2019-02-26T16:00:37.663Z,24.83
2019-02-26T16:03:06.404Z,30.50
2019-02-26T16:05:39.285Z,25.20
2019-02-26T16:08:08.188Z,28.73
2019-02-26T16:10:36.741Z,30.63
2019-02-26T16:13:05.657Z,27.80
2019-02-26T16:15:38.440Z,27.57
2019-02-26T16:18:07.950Z,24.73
2019-02-26T16:20:36.515Z,29.67
2019-02-26T16:23:05.323Z,30.07
2019-02-26T16:25:33.884Z,30.00
2019-02-26T16:28:02.839Z,23.53
2019-02-26T16:30:31.727Z,30.83
2019-02-26T16:33:00.475Z,25.10
2019-02-26T16:35:29.034Z,25.80
2019-02-26T16:37:58.052Z,24.57
2019-02-26T16:40:31.434Z,28.33
2019-02-26T16:42:57.056Z,27.13
2019-02-26T16:45:26.961Z,30.03
2019-02-26T16:47:57.375Z,29.77
2019-02-26T16:50:28.640Z,25.70
2019-02-26T16:52:58.027Z,27.07
2019-02-26T16:55:28.032Z,24.93
2019-02-26T16:57:56.766Z,27.90
2019-02-26T17:00:30.313Z,29.17
2019-02-26T17:03:00.965Z,30.27
2019-02-26T17:05:29.674Z,28.07
2019-02-26T17:07:58.862Z,33.70
2019-02-26T17:10:30.362Z,28.47
2019-02-26T17:13:01.897Z,30.17
2019-02-26T17:15:34.035Z,26.30
2019-02-26T17:18:02.827Z,31.67
2019-02-26T17:20:31.479Z,28.57
2019-02-26T17:23:00.607Z,27.27
2019-02-26T17:25:29.239Z,31.73
2019-02-26T17:27:58.215Z,28.33
2019-02-26T17:30:26.858Z,30.20
2019-02-26T17:32:55.911Z,25.57
2019-02-26T17:35:28.808Z,28.03
2019-02-26T17:37:54.975Z,40.77
2019-02-26T17:40:26.147Z,30.80
2019-02-26T17:42:55.019Z,24.07
2019-02-26T17:45:29.031Z,34.20
2019-02-26T17:47:57.903Z,30.50
2019-02-26T17:50:36.762Z,28.97
2019-02-26T17:53:05.724Z,28.63
2019-02-26T17:55:34.641Z,31.70
2019-02-26T17:58:03.501Z,29.20
2019-02-26T18:00:36.507Z,27.93
2019-02-26T18:03:07.272Z,27.30
2019-02-26T18:05:39.327Z,30.33
2019-02-26T18:08:07.263Z,29.73
2019-02-26T18:10:36.654Z,32.30
2019-02-26T18:13:05.730Z,26.63
2019-02-26T18:15:34.443Z,27.93
2019-02-26T18:18:03.008Z,30.93
2019-02-26T18:20:31.926Z,25.77
2019-02-26T18:23:00.875Z,35.47
2019-02-26T18:25:29.897Z,30.60
2019-02-26T18:27:58.616Z,26.77
2019-02-26T18:30:31.392Z,26.57
2019-02-26T18:33:00.251Z,26.63
2019-02-26T18:35:28.980Z,29.93
2019-02-26T18:37:57.836Z,39.83
2019-02-26T18:40:28.327Z,34.30
2019-02-26T18:42:57.273Z,30.47
2019-02-26T18:45:30.407Z,26.17
2019-02-26T18:47:58.976Z,31.50
2019-02-26T18:50:29.560Z,26.90
2019-02-26T18:52:58.599Z,28.80
2019-02-26T18:55:30.285Z,32.50
2019-02-26T18:57:58.272Z,45.70
2019-02-26T19:00:34.583Z,32.73
2019-02-26T19:03:03.675Z,33.63
2019-02-26T19:05:32.434Z,32.23
2019-02-26T19:08:00.990Z,39.10
2019-02-26T19:10:31.149Z,31.20
2019-02-26T19:13:02.437Z,27.80
2019-02-26T19:15:35.343Z,30.47
2019-02-26T19:18:03.980Z,29.40
2019-02-26T19:20:35.195Z,30.47
2019-02-26T19:23:03.844Z,34.47
2019-02-26T19:25:32.773Z,32.87
2019-02-26T19:28:01.418Z,36.53
2019-02-26T19:30:30.347Z,33.30
2019-02-26T19:32:58.917Z,34.20
2019-02-26T19:35:27.909Z,31.23
2019-02-26T19:38:00.885Z,31.57
2019-02-26T19:40:41.687Z,35.10
2019-02-26T19:43:10.245Z,37.37
2019-02-26T19:45:39.048Z,33.83
2019-02-26T19:48:07.617Z,31.87
2019-02-26T19:50:36.421Z,31.43
2019-02-26T19:53:04.998Z,31.10
2019-02-26T19:55:37.066Z,34.27
2019-02-26T19:58:06.950Z,33.73
2019-02-26T20:00:36.075Z,33.67
2019-02-26T20:03:05.305Z,33.80
2019-02-26T20:05:34.850Z,31.60
2019-02-26T20:08:05.248Z,34.00
2019-02-26T20:10:34.106Z,34.80
2019-02-26T20:13:04.076Z,31.13
2019-02-26T20:15:33.140Z,39.00
2019-02-26T20:18:01.675Z,37.83
2019-02-26T20:20:30.508Z,37.20
2019-02-26T20:22:59.785Z,34.83
2019-02-26T20:25:28.343Z,44.80
2019-02-26T20:28:04.970Z,35.73
2019-02-26T20:30:27.814Z,39.30
2019-02-26T20:32:56.574Z,34.33
2019-02-26T20:35:25.133Z,35.30
2019-02-26T20:37:53.944Z,32.57
2019-02-26T20:40:25.781Z,36.40
2019-02-26T20:42:54.906Z,41.90
2019-02-26T20:45:23.539Z,32.10
2019-02-26T20:47:52.586Z,43.07
2019-02-26T20:50:23.348Z,39.47
2019-02-26T20:52:53.044Z,37.57
2019-02-26T20:55:23.362Z,37.83
2019-02-26T20:57:51.928Z,36.47
2019-02-26T21:00:24.921Z,39.90
2019-02-26T21:02:52.279Z,50.10
2019-02-26T21:05:20.976Z,53.23
2019-02-26T21:07:49.818Z,60.20
2019-02-26T21:10:19.871Z,66.30
2019-02-26T21:12:48.495Z,43.10
2019-02-26T21:15:24.708Z,42.97
2019-02-26T21:17:57.843Z,44.30
2019-02-26T21:20:24.153Z,41.70
2019-02-26T21:22:54.906Z,41.47
2019-02-26T21:25:23.633Z,36.63
2019-02-26T21:27:52.307Z,45.00
2019-02-26T21:30:22.206Z,39.77
2019-02-26T21:32:51.729Z,49.23
2019-02-26T21:35:21.329Z,42.37
2019-02-26T21:37:50.115Z,39.10
2019-02-26T21:40:19.149Z,42.80
2019-02-26T21:42:47.772Z,39.77
2019-02-26T21:45:18.047Z,39.80
2019-02-26T21:47:47.519Z,41.13
2019-02-26T21:50:16.723Z,37.37
2019-02-26T21:52:59.179Z,35.80
2019-02-26T21:55:16.430Z,41.90
2019-02-26T21:57:45.239Z,38.43
2019-02-26T22:00:20.278Z,36.77
2019-02-26T22:02:52.071Z,31.00
2019-02-26T22:05:19.737Z,36.23
2019-02-26T22:07:52.124Z,39.73
2019-02-26T22:10:20.169Z,44.20
2019-02-26T22:12:49.268Z,37.50
2019-02-26T22:15:18.063Z,35.67
2019-02-26T22:17:46.844Z,39.80
2019-02-26T22:20:23.649Z,40.50
2019-02-26T22:22:47.651Z,42.33
2019-02-26T22:25:17.441Z,35.23
2019-02-26T22:27:46.707Z,37.93
2019-02-26T22:30:21.426Z,40.63
2019-02-26T22:32:48.989Z,42.40
2019-02-26T22:35:17.625Z,35.57
2019-02-26T22:37:46.373Z,39.20
2019-02-26T22:40:15.480Z,37.23
2019-02-26T22:42:44.973Z,35.50
2019-02-26T22:45:14.675Z,39.13
2019-02-26T22:47:44.547Z,37.07
2019-02-26T22:50:14.681Z,45.27
2019-02-26T22:52:44.222Z,35.70
2019-02-26T22:55:16.482Z,38.03
2019-02-26T22:57:44.865Z,38.17
2019-02-26T23:00:27.016Z,50.43
2019-02-26T23:02:55.952Z,36.27
2019-02-26T23:05:25.703Z,42.13
2019-02-26T23:07:54.961Z,42.67
2019-02-26T23:10:24.688Z,43.10
2019-02-26T23:12:54.315Z,39.70
2019-02-26T23:15:23.143Z,45.00
2019-02-26T23:17:52.159Z,41.83
2019-02-26T23:20:20.789Z,46.90
2019-02-26T23:22:50.299Z,45.50
2019-02-26T23:25:19.361Z,44.60
2019-02-26T23:27:48.669Z,36.57
2019-02-26T23:30:19.091Z,41.40
2019-02-26T23:32:47.659Z,45.93
2019-02-26T23:35:16.665Z,38.33
2019-02-26T23:37:45.847Z,47.73
2019-02-26T23:40:15.475Z,42.10
2019-02-26T23:42:44.031Z,43.33
2019-02-26T23:45:13.658Z,53.77
2019-02-26T23:47:42.686Z,45.20
2019-02-26T23:50:12.464Z,42.93
2019-02-26T23:52:41.028Z,38.87
2019-02-26T23:55:13.376Z,46.30
2019-02-26T23:57:41.331Z,45.70
